sensor_id;sensor_type;location;lat;lon;timestamp;temperature;humidity
7016;DHT22;3548;48.402;9.990;2023-11-19T00:00:27;6.60;99.90
7016;DHT22;3548;48.402;9.990;2023-11-19T00:02:53;6.60;99.90
7016;DHT22;3548;48.402;9.990;2023-11-19T00:05:18;6.60;99.90
7016;DHT22;3548;48.402;9.990;2023-11-19T00:07:44;6.60;99.90
7016;DHT22;3548;48.402;9.990;2023-11-19T00:10:10;6.60;99.90
7016;DHT22;3548;48.402;9.990;2023-11-19T00:12:38;6.60;99.90
7016;DHT22;3548;48.402;9.990;2023-11-19T00:15:04;6.60;99.90
7016;DHT22;3548;48.402;9.990;2023-11-19T00:17:30;6.60;99.90
7016;DHT22;3548;48.402;9.990;2023-11-19T00:19:56;6.60;99.90
7016;DHT22;3548;48.402;9.990;2023-11-19T00:22:21;6.60;99.90
7016;DHT22;3548;48.402;9.990;2023-11-19T00:24:47;6.70;99.90
7016;DHT22;3548;48.402;9.990;2023-11-19T00:27:13;6.70;99.90
7016;DHT22;3548;48.402;9.990;2023-11-19T00:29:38;6.70;99.90
7016;DHT22;3548;48.402;9.990;2023-11-19T00:32:04;6.70;99.90
7016;DHT22;3548;48.402;9.990;2023-11-19T00:34:31;6.70;99.90
7016;DHT22;3548;48.402;9.990;2023-11-19T00:36:56;6.70;99.90
7016;DHT22;3548;48.402;9.990;2023-11-19T00:39:22;6.70;99.90
7016;DHT22;3548;48.402;9.990;2023-11-19T00:41:48;6.70;99.90
7016;DHT22;3548;48.402;9.990;2023-11-19T00:44:13;6.70;99.90
7016;DHT22;3548;48.402;9.990;2023-11-19T00:46:39;6.70;99.90
7016;DHT22;3548;48.402;9.990;2023-11-19T00:49:05;6.70;99.90
7016;DHT22;3548;48.402;9.990;2023-11-19T00:51:30;6.70;99.90
7016;DHT22;3548;48.402;9.990;2023-11-19T00:53:57;6.70;99.90
7016;DHT22;3548;48.402;9.990;2023-11-19T00:56:23;6.70;99.90
7016;DHT22;3548;48.402;9.990;2023-11-19T00:58:48;6.80;99.90
7016;DHT22;3548;48.402;9.990;2023-11-19T01:01:14;6.70;99.90
7016;DHT22;3548;48.402;9.990;2023-11-19T01:03:39;6.80;99.90
7016;DHT22;3548;48.402;9.990;2023-11-19T01:06:05;6.80;99.90
7016;DHT22;3548;48.402;9.990;2023-11-19T01:08:31;6.80;99.90
7016;DHT22;3548;48.402;9.990;2023-11-19T01:10:57;6.80;99.90
7016;DHT22;3548;48.402;9.990;2023-11-19T01:13:23;6.80;99.90
7016;DHT22;3548;48.402;9.990;2023-11-19T01:15:48;6.80;99.90
7016;DHT22;3548;48.402;9.990;2023-11-19T01:18:14;6.80;99.90
7016;DHT22;3548;48.402;9.990;2023-11-19T01:20:40;6.80;99.90
7016;DHT22;3548;48.402;9.990;2023-11-19T01:23:05;6.80;99.90
7016;DHT22;3548;48.402;9.990;2023-11-19T01:25:31;6.90;99.90
7016;DHT22;3548;48.402;9.990;2023-11-19T01:27:57;6.90;99.90
7016;DHT22;3548;48.402;9.990;2023-11-19T01:30:24;6.90;99.90
7016;DHT22;3548;48.402;9.990;2023-11-19T01:32:50;6.90;99.90
7016;DHT22;3548;48.402;9.990;2023-11-19T01:35:15;6.90;99.90
7016;DHT22;3548;48.402;9.990;2023-11-19T01:37:41;6.90;99.90
7016;DHT22;3548;48.402;9.990;2023-11-19T01:40:06;6.90;99.90
7016;DHT22;3548;48.402;9.990;2023-11-19T01:42:40;6.90;99.90
7016;DHT22;3548;48.402;9.990;2023-11-19T01:45:07;7.00;99.90
7016;DHT22;3548;48.402;9.990;2023-11-19T01:47:35;7.00;99.90
7016;DHT22;3548;48.402;9.990;2023-11-19T01:50:02;7.00;99.90
7016;DHT22;3548;48.402;9.990;2023-11-19T01:52:33;7.00;99.90
7016;DHT22;3548;48.402;9.990;2023-11-19T01:55:01;7.00;99.90
7016;DHT22;3548;48.402;9.990;2023-11-19T01:57:27;7.10;99.90
7016;DHT22;3548;48.402;9.990;2023-11-19T01:59:53;7.10;99.90
7016;DHT22;3548;48.402;9.990;2023-11-19T02:02:20;7.10;99.90
7016;DHT22;3548;48.402;9.990;2023-11-19T02:04:50;7.10;99.90
7016;DHT22;3548;48.402;9.990;2023-11-19T02:07:16;7.10;99.90
7016;DHT22;3548;48.402;9.990;2023-11-19T02:09:43;7.10;99.90
7016;DHT22;3548;48.402;9.990;2023-11-19T02:12:09;7.10;99.90
7016;DHT22;3548;48.402;9.990;2023-11-19T02:14:37;7.20;99.90
7016;DHT22;3548;48.402;9.990;2023-11-19T02:17:02;7.20;99.90
7016;DHT22;3548;48.402;9.990;2023-11-19T02:19:28;7.20;99.90
7016;DHT22;3548;48.402;9.990;2023-11-19T02:21:54;7.20;99.90
7016;DHT22;3548;48.402;9.990;2023-11-19T02:24:22;7.20;99.90
7016;DHT22;3548;48.402;9.990;2023-11-19T02:27:02;7.30;99.90
7016;DHT22;3548;48.402;9.990;2023-11-19T02:29:31;7.30;99.90
7016;DHT22;3548;48.402;9.990;2023-11-19T02:31:56;7.30;99.90
7016;DHT22;3548;48.402;9.990;2023-11-19T02:34:22;7.30;99.90
7016;DHT22;3548;48.402;9.990;2023-11-19T02:36:47;7.30;99.90
7016;DHT22;3548;48.402;9.990;2023-11-19T02:39:13;7.30;99.90
7016;DHT22;3548;48.402;9.990;2023-11-19T02:41:39;7.30;99.90
7016;DHT22;3548;48.402;9.990;2023-11-19T02:44:06;7.30;99.90
7016;DHT22;3548;48.402;9.990;2023-11-19T02:46:31;7.30;99.90
7016;DHT22;3548;48.402;9.990;2023-11-19T02:48:57;7.40;99.90
7016;DHT22;3548;48.402;9.990;2023-11-19T02:51:23;7.40;99.90
7016;DHT22;3548;48.402;9.990;2023-11-19T02:53:48;7.40;99.90
7016;DHT22;3548;48.402;9.990;2023-11-19T02:56:14;7.40;99.90
7016;DHT22;3548;48.402;9.990;2023-11-19T02:58:51;7.40;99.90
7016;DHT22;3548;48.402;9.990;2023-11-19T03:01:26;7.40;99.90
7016;DHT22;3548;48.402;9.990;2023-11-19T03:03:56;7.50;99.90
7016;DHT22;3548;48.402;9.990;2023-11-19T03:06:22;7.50;99.90
7016;DHT22;3548;48.402;9.990;2023-11-19T03:08:48;7.50;99.90
7016;DHT22;3548;48.402;9.990;2023-11-19T03:11:14;7.60;99.90
7016;DHT22;3548;48.402;9.990;2023-11-19T03:13:40;7.60;99.90
7016;DHT22;3548;48.402;9.990;2023-11-19T03:16:05;7.60;99.90
7016;DHT22;3548;48.402;9.990;2023-11-19T03:18:31;7.60;99.90
7016;DHT22;3548;48.402;9.990;2023-11-19T03:20:58;7.60;99.90
7016;DHT22;3548;48.402;9.990;2023-11-19T03:23:24;7.70;99.90
7016;DHT22;3548;48.402;9.990;2023-11-19T03:25:53;7.70;99.90
7016;DHT22;3548;48.402;9.990;2023-11-19T03:28:18;7.70;99.90
7016;DHT22;3548;48.402;9.990;2023-11-19T03:30:44;7.70;99.90
7016;DHT22;3548;48.402;9.990;2023-11-19T03:33:09;7.70;99.90
7016;DHT22;3548;48.402;9.990;2023-11-19T03:35:35;7.80;99.90
7016;DHT22;3548;48.402;9.990;2023-11-19T03:38:00;7.80;99.90
7016;DHT22;3548;48.402;9.990;2023-11-19T03:40:26;7.80;99.90
7016;DHT22;3548;48.402;9.990;2023-11-19T03:42:52;7.90;99.90
7016;DHT22;3548;48.402;9.990;2023-11-19T03:45:17;7.90;99.90
7016;DHT22;3548;48.402;9.990;2023-11-19T03:47:43;7.90;99.90
7016;DHT22;3548;48.402;9.990;2023-11-19T03:50:09;7.90;99.90
7016;DHT22;3548;48.402;9.990;2023-11-19T03:52:35;7.90;99.90
7016;DHT22;3548;48.402;9.990;2023-11-19T03:55:00;7.90;99.90
7016;DHT22;3548;48.402;9.990;2023-11-19T03:57:27;7.90;99.90
7016;DHT22;3548;48.402;9.990;2023-11-19T03:59:53;7.90;99.90
7016;DHT22;3548;48.402;9.990;2023-11-19T04:02:18;7.90;99.90
7016;DHT22;3548;48.402;9.990;2023-11-19T04:04:44;7.90;99.90
7016;DHT22;3548;48.402;9.990;2023-11-19T04:07:10;8.00;99.90
7016;DHT22;3548;48.402;9.990;2023-11-19T04:09:35;7.90;99.90
7016;DHT22;3548;48.402;9.990;2023-11-19T04:12:03;8.00;99.90
7016;DHT22;3548;48.402;9.990;2023-11-19T04:14:29;8.00;99.90
7016;DHT22;3548;48.402;9.990;2023-11-19T04:16:54;8.00;99.90
7016;DHT22;3548;48.402;9.990;2023-11-19T04:19:20;8.10;99.90
7016;DHT22;3548;48.402;9.990;2023-11-19T04:21:46;8.10;99.90
7016;DHT22;3548;48.402;9.990;2023-11-19T04:24:12;8.10;99.90
7016;DHT22;3548;48.402;9.990;2023-11-19T04:26:44;8.10;99.90
7016;DHT22;3548;48.402;9.990;2023-11-19T04:29:14;8.10;99.90
7016;DHT22;3548;48.402;9.990;2023-11-19T04:31:43;8.10;99.90
7016;DHT22;3548;48.402;9.990;2023-11-19T04:34:12;8.10;99.90
7016;DHT22;3548;48.402;9.990;2023-11-19T04:36:38;8.10;99.90
7016;DHT22;3548;48.402;9.990;2023-11-19T04:39:05;8.20;99.90
7016;DHT22;3548;48.402;9.990;2023-11-19T04:44:17;8.10;99.90
7016;DHT22;3548;48.402;9.990;2023-11-19T04:46:43;8.20;99.90
7016;DHT22;3548;48.402;9.990;2023-11-19T04:49:09;8.20;99.90
7016;DHT22;3548;48.402;9.990;2023-11-19T04:51:40;8.20;99.90
7016;DHT22;3548;48.402;9.990;2023-11-19T04:54:07;8.20;99.90
7016;DHT22;3548;48.402;9.990;2023-11-19T04:56:34;8.20;99.90
7016;DHT22;3548;48.402;9.990;2023-11-19T04:59:00;8.20;99.90
7016;DHT22;3548;48.402;9.990;2023-11-19T05:01:26;8.20;99.90
7016;DHT22;3548;48.402;9.990;2023-11-19T05:03:53;8.20;99.90
7016;DHT22;3548;48.402;9.990;2023-11-19T05:06:18;8.20;99.90
7016;DHT22;3548;48.402;9.990;2023-11-19T05:08:44;8.20;99.90
7016;DHT22;3548;48.402;9.990;2023-11-19T05:11:10;8.20;99.90
7016;DHT22;3548;48.402;9.990;2023-11-19T05:13:38;8.20;99.90
7016;DHT22;3548;48.402;9.990;2023-11-19T05:16:03;8.20;99.90
7016;DHT22;3548;48.402;9.990;2023-11-19T05:18:29;8.20;99.90
7016;DHT22;3548;48.402;9.990;2023-11-19T05:20:55;8.20;99.90
7016;DHT22;3548;48.402;9.990;2023-11-19T05:23:20;8.20;99.90
7016;DHT22;3548;48.402;9.990;2023-11-19T05:25:46;8.20;99.90
7016;DHT22;3548;48.402;9.990;2023-11-19T05:28:13;8.20;99.90
7016;DHT22;3548;48.402;9.990;2023-11-19T05:30:39;8.20;99.90
7016;DHT22;3548;48.402;9.990;2023-11-19T05:33:05;8.20;99.90
7016;DHT22;3548;48.402;9.990;2023-11-19T05:35:32;8.20;99.90
7016;DHT22;3548;48.402;9.990;2023-11-19T05:37:57;8.10;99.90
7016;DHT22;3548;48.402;9.990;2023-11-19T05:40:23;8.20;99.90
7016;DHT22;3548;48.402;9.990;2023-11-19T05:42:49;8.20;99.90
7016;DHT22;3548;48.402;9.990;2023-11-19T05:45:14;8.20;99.90
7016;DHT22;3548;48.402;9.990;2023-11-19T05:47:40;8.20;99.90
7016;DHT22;3548;48.402;9.990;2023-11-19T05:50:06;8.20;99.90
7016;DHT22;3548;48.402;9.990;2023-11-19T05:52:32;8.20;99.90
7016;DHT22;3548;48.402;9.990;2023-11-19T05:55:02;8.30;99.90
7016;DHT22;3548;48.402;9.990;2023-11-19T05:57:31;8.30;99.90
7016;DHT22;3548;48.402;9.990;2023-11-19T05:59:57;8.30;99.90
7016;DHT22;3548;48.402;9.990;2023-11-19T06:02:24;8.30;99.90
7016;DHT22;3548;48.402;9.990;2023-11-19T06:04:49;8.30;99.90
7016;DHT22;3548;48.402;9.990;2023-11-19T06:07:15;8.30;99.90
7016;DHT22;3548;48.402;9.990;2023-11-19T06:09:41;8.30;99.90
7016;DHT22;3548;48.402;9.990;2023-11-19T06:12:07;8.30;99.90
7016;DHT22;3548;48.402;9.990;2023-11-19T06:14:32;8.40;99.90
7016;DHT22;3548;48.402;9.990;2023-11-19T06:16:58;8.40;99.90
7016;DHT22;3548;48.402;9.990;2023-11-19T06:19:24;8.40;99.90
7016;DHT22;3548;48.402;9.990;2023-11-19T06:21:52;8.40;99.90
7016;DHT22;3548;48.402;9.990;2023-11-19T06:24:18;8.50;99.90
7016;DHT22;3548;48.402;9.990;2023-11-19T06:26:43;8.50;99.90
7016;DHT22;3548;48.402;9.990;2023-11-19T06:29:09;8.50;99.90
7016;DHT22;3548;48.402;9.990;2023-11-19T06:31:34;8.50;99.90
7016;DHT22;3548;48.402;9.990;2023-11-19T06:34:00;8.50;99.90
7016;DHT22;3548;48.402;9.990;2023-11-19T06:36:25;8.50;99.90
7016;DHT22;3548;48.402;9.990;2023-11-19T06:38:52;8.60;99.90
7016;DHT22;3548;48.402;9.990;2023-11-19T06:41:17;8.60;99.90
7016;DHT22;3548;48.402;9.990;2023-11-19T06:43:43;8.60;99.90
7016;DHT22;3548;48.402;9.990;2023-11-19T06:46:18;8.70;99.90
7016;DHT22;3548;48.402;9.990;2023-11-19T06:48:44;8.70;99.90
7016;DHT22;3548;48.402;9.990;2023-11-19T06:51:10;8.70;99.90
7016;DHT22;3548;48.402;9.990;2023-11-19T06:53:36;8.70;99.90
7016;DHT22;3548;48.402;9.990;2023-11-19T06:56:02;8.70;99.90
7016;DHT22;3548;48.402;9.990;2023-11-19T06:58:32;8.70;99.90
7016;DHT22;3548;48.402;9.990;2023-11-19T07:00:58;8.80;99.90
7016;DHT22;3548;48.402;9.990;2023-11-19T07:03:23;8.80;99.90
7016;DHT22;3548;48.402;9.990;2023-11-19T07:05:49;8.80;99.90
7016;DHT22;3548;48.402;9.990;2023-11-19T07:08:14;8.80;99.90
7016;DHT22;3548;48.402;9.990;2023-11-19T07:10:40;8.80;99.90
7016;DHT22;3548;48.402;9.990;2023-11-19T07:13:06;8.80;99.90
7016;DHT22;3548;48.402;9.990;2023-11-19T07:15:31;8.90;99.90
7016;DHT22;3548;48.402;9.990;2023-11-19T07:17:58;8.90;99.90
7016;DHT22;3548;48.402;9.990;2023-11-19T07:20:25;8.90;99.90
7016;DHT22;3548;48.402;9.990;2023-11-19T07:22:52;8.90;99.90
7016;DHT22;3548;48.402;9.990;2023-11-19T07:25:17;8.90;99.90
7016;DHT22;3548;48.402;9.990;2023-11-19T07:27:43;8.90;99.90
7016;DHT22;3548;48.402;9.990;2023-11-19T07:30:09;9.00;99.90
7016;DHT22;3548;48.402;9.990;2023-11-19T07:32:34;9.00;99.90
7016;DHT22;3548;48.402;9.990;2023-11-19T07:35:00;9.00;99.90
7016;DHT22;3548;48.402;9.990;2023-11-19T07:37:26;9.10;99.90
7016;DHT22;3548;48.402;9.990;2023-11-19T07:39:51;9.10;99.90
7016;DHT22;3548;48.402;9.990;2023-11-19T07:42:17;9.10;99.90
7016;DHT22;3548;48.402;9.990;2023-11-19T07:44:43;9.10;99.90
7016;DHT22;3548;48.402;9.990;2023-11-19T07:47:09;9.10;99.90
7016;DHT22;3548;48.402;9.990;2023-11-19T07:49:35;9.20;99.90
7016;DHT22;3548;48.402;9.990;2023-11-19T07:52:00;9.20;99.90
7016;DHT22;3548;48.402;9.990;2023-11-19T07:54:28;9.20;99.90
7016;DHT22;3548;48.402;9.990;2023-11-19T07:56:54;9.20;99.90
7016;DHT22;3548;48.402;9.990;2023-11-19T07:59:19;9.30;99.90
7016;DHT22;3548;48.402;9.990;2023-11-19T08:01:45;9.30;99.90
7016;DHT22;3548;48.402;9.990;2023-11-19T08:04:10;9.30;99.90
7016;DHT22;3548;48.402;9.990;2023-11-19T08:06:36;9.40;99.90
7016;DHT22;3548;48.402;9.990;2023-11-19T08:09:02;9.40;99.90
7016;DHT22;3548;48.402;9.990;2023-11-19T08:11:27;9.40;99.90
7016;DHT22;3548;48.402;9.990;2023-11-19T08:13:53;9.40;99.90
7016;DHT22;3548;48.402;9.990;2023-11-19T08:16:18;9.30;99.90
7016;DHT22;3548;48.402;9.990;2023-11-19T08:18:44;9.30;99.90
7016;DHT22;3548;48.402;9.990;2023-11-19T08:21:10;9.40;99.90
7016;DHT22;3548;48.402;9.990;2023-11-19T08:23:36;9.40;99.90
7016;DHT22;3548;48.402;9.990;2023-11-19T08:26:02;9.40;99.90
7016;DHT22;3548;48.402;9.990;2023-11-19T08:28:28;9.40;99.90
7016;DHT22;3548;48.402;9.990;2023-11-19T08:30:53;9.40;99.90
7016;DHT22;3548;48.402;9.990;2023-11-19T08:33:19;9.40;99.90
7016;DHT22;3548;48.402;9.990;2023-11-19T08:35:47;9.50;99.90
7016;DHT22;3548;48.402;9.990;2023-11-19T08:38:13;9.50;99.90
7016;DHT22;3548;48.402;9.990;2023-11-19T08:40:38;9.50;99.90
7016;DHT22;3548;48.402;9.990;2023-11-19T08:43:04;9.50;99.90
7016;DHT22;3548;48.402;9.990;2023-11-19T08:45:30;9.50;99.90
7016;DHT22;3548;48.402;9.990;2023-11-19T08:47:57;9.60;99.90
7016;DHT22;3548;48.402;9.990;2023-11-19T08:50:22;9.60;99.90
7016;DHT22;3548;48.402;9.990;2023-11-19T08:52:49;9.70;99.90
7016;DHT22;3548;48.402;9.990;2023-11-19T08:55:14;9.70;99.90
7016;DHT22;3548;48.402;9.990;2023-11-19T08:57:40;9.80;99.90
7016;DHT22;3548;48.402;9.990;2023-11-19T09:00:06;9.80;99.90
7016;DHT22;3548;48.402;9.990;2023-11-19T09:02:38;9.90;99.90
7016;DHT22;3548;48.402;9.990;2023-11-19T09:05:04;10.00;99.90
7016;DHT22;3548;48.402;9.990;2023-11-19T09:07:31;10.10;99.90
7016;DHT22;3548;48.402;9.990;2023-11-19T09:09:56;10.20;99.90
7016;DHT22;3548;48.402;9.990;2023-11-19T09:12:22;10.30;99.90
7016;DHT22;3548;48.402;9.990;2023-11-19T09:14:47;10.30;99.90
7016;DHT22;3548;48.402;9.990;2023-11-19T09:17:14;10.30;99.90
7016;DHT22;3548;48.402;9.990;2023-11-19T09:19:40;10.40;99.90
7016;DHT22;3548;48.402;9.990;2023-11-19T09:22:06;10.50;99.90
7016;DHT22;3548;48.402;9.990;2023-11-19T09:24:32;10.60;99.90
7016;DHT22;3548;48.402;9.990;2023-11-19T09:26:57;10.60;99.90
7016;DHT22;3548;48.402;9.990;2023-11-19T09:29:23;10.60;99.90
7016;DHT22;3548;48.402;9.990;2023-11-19T09:31:49;10.60;99.90
7016;DHT22;3548;48.402;9.990;2023-11-19T09:34:14;10.60;99.90
7016;DHT22;3548;48.402;9.990;2023-11-19T09:36:40;10.70;99.90
7016;DHT22;3548;48.402;9.990;2023-11-19T09:39:10;10.80;99.90
7016;DHT22;3548;48.402;9.990;2023-11-19T09:41:35;10.80;99.90
7016;DHT22;3548;48.402;9.990;2023-11-19T09:44:01;10.90;99.90
7016;DHT22;3548;48.402;9.990;2023-11-19T09:46:27;11.00;99.90
7016;DHT22;3548;48.402;9.990;2023-11-19T09:48:54;11.00;99.90
7016;DHT22;3548;48.402;9.990;2023-11-19T09:51:21;11.10;99.90
7016;DHT22;3548;48.402;9.990;2023-11-19T09:53:48;11.10;99.90
7016;DHT22;3548;48.402;9.990;2023-11-19T09:56:14;11.20;99.90
7016;DHT22;3548;48.402;9.990;2023-11-19T09:58:40;11.20;99.90
7016;DHT22;3548;48.402;9.990;2023-11-19T10:01:05;11.20;99.90
7016;DHT22;3548;48.402;9.990;2023-11-19T10:03:34;11.20;99.90
7016;DHT22;3548;48.402;9.990;2023-11-19T10:06:10;11.30;99.90
7016;DHT22;3548;48.402;9.990;2023-11-19T10:08:39;11.30;99.90
7016;DHT22;3548;48.402;9.990;2023-11-19T10:11:06;11.30;99.90
7016;DHT22;3548;48.402;9.990;2023-11-19T10:13:34;11.30;99.90
7016;DHT22;3548;48.402;9.990;2023-11-19T10:16:10;11.20;99.90
7016;DHT22;3548;48.402;9.990;2023-11-19T10:18:37;11.30;99.90
7016;DHT22;3548;48.402;9.990;2023-11-19T10:21:06;11.40;99.90
7016;DHT22;3548;48.402;9.990;2023-11-19T10:26:19;11.80;99.90
7016;DHT22;3548;48.402;9.990;2023-11-19T10:28:48;11.90;99.90
7016;DHT22;3548;48.402;9.990;2023-11-19T10:31:15;11.90;99.90
7016;DHT22;3548;48.402;9.990;2023-11-19T10:33:40;12.00;99.90
7016;DHT22;3548;48.402;9.990;2023-11-19T10:36:06;12.10;99.90
7016;DHT22;3548;48.402;9.990;2023-11-19T10:38:32;12.20;99.90
7016;DHT22;3548;48.402;9.990;2023-11-19T10:40:58;12.30;99.90
7016;DHT22;3548;48.402;9.990;2023-11-19T10:43:24;12.40;99.90
7016;DHT22;3548;48.402;9.990;2023-11-19T10:45:51;12.50;99.90
7016;DHT22;3548;48.402;9.990;2023-11-19T10:48:17;12.60;99.90
7016;DHT22;3548;48.402;9.990;2023-11-19T10:50:46;12.50;99.90
7016;DHT22;3548;48.402;9.990;2023-11-19T10:53:12;12.50;99.90
7016;DHT22;3548;48.402;9.990;2023-11-19T10:55:47;12.40;99.90
7016;DHT22;3548;48.402;9.990;2023-11-19T10:58:15;12.50;99.90
7016;DHT22;3548;48.402;9.990;2023-11-19T11:00:46;12.60;99.90
7016;DHT22;3548;48.402;9.990;2023-11-19T11:03:18;12.80;99.90
7016;DHT22;3548;48.402;9.990;2023-11-19T11:05:46;12.90;99.90
7016;DHT22;3548;48.402;9.990;2023-11-19T11:08:13;13.10;99.90
7016;DHT22;3548;48.402;9.990;2023-11-19T11:11:11;13.10;99.90
7016;DHT22;3548;48.402;9.990;2023-11-19T11:13:42;13.20;99.90
7016;DHT22;3548;48.402;9.990;2023-11-19T11:16:08;13.00;99.90
7016;DHT22;3548;48.402;9.990;2023-11-19T11:18:34;12.90;99.90
7016;DHT22;3548;48.402;9.990;2023-11-19T11:21:12;12.90;99.90
7016;DHT22;3548;48.402;9.990;2023-11-19T11:24:23;12.90;99.90
7016;DHT22;3548;48.402;9.990;2023-11-19T11:27:09;12.90;99.90
7016;DHT22;3548;48.402;9.990;2023-11-19T11:30:05;12.80;99.90
7016;DHT22;3548;48.402;9.990;2023-11-19T11:38:03;12.70;99.90
7016;DHT22;3548;48.402;9.990;2023-11-19T11:40:29;12.70;99.90
7016;DHT22;3548;48.402;9.990;2023-11-19T11:42:57;12.60;99.90
7016;DHT22;3548;48.402;9.990;2023-11-19T11:45:36;12.60;99.90
7016;DHT22;3548;48.402;9.990;2023-11-19T11:50:35;12.60;99.90
7016;DHT22;3548;48.402;9.990;2023-11-19T11:55:36;12.70;99.90
7016;DHT22;3548;48.402;9.990;2023-11-19T11:58:07;12.70;99.90
7016;DHT22;3548;48.402;9.990;2023-11-19T12:00:40;12.80;99.90
7016;DHT22;3548;48.402;9.990;2023-11-19T12:03:08;12.80;99.90
7016;DHT22;3548;48.402;9.990;2023-11-19T12:05:41;12.90;99.90
7016;DHT22;3548;48.402;9.990;2023-11-19T12:08:07;12.90;99.90
7016;DHT22;3548;48.402;9.990;2023-11-19T12:10:48;13.00;99.90
7016;DHT22;3548;48.402;9.990;2023-11-19T12:13:19;13.00;99.90
7016;DHT22;3548;48.402;9.990;2023-11-19T12:18:28;13.20;99.90
7016;DHT22;3548;48.402;9.990;2023-11-19T12:20:54;13.20;99.90
7016;DHT22;3548;48.402;9.990;2023-11-19T12:23:20;13.30;99.90
7016;DHT22;3548;48.402;9.990;2023-11-19T12:25:46;13.40;99.90
7016;DHT22;3548;48.402;9.990;2023-11-19T12:28:12;13.60;99.90
7016;DHT22;3548;48.402;9.990;2023-11-19T12:30:38;13.70;99.90
7016;DHT22;3548;48.402;9.990;2023-11-19T12:33:11;13.80;99.90
7016;DHT22;3548;48.402;9.990;2023-11-19T12:35:44;14.00;99.90
7016;DHT22;3548;48.402;9.990;2023-11-19T12:38:24;14.20;99.90
7016;DHT22;3548;48.402;9.990;2023-11-19T12:41:03;14.20;99.90
7016;DHT22;3548;48.402;9.990;2023-11-19T12:43:29;14.10;99.90
7016;DHT22;3548;48.402;9.990;2023-11-19T12:45:55;14.10;99.90
7016;DHT22;3548;48.402;9.990;2023-11-19T12:48:20;14.10;99.90
7016;DHT22;3548;48.402;9.990;2023-11-19T12:50:57;14.10;99.90
7016;DHT22;3548;48.402;9.990;2023-11-19T12:53:23;14.10;99.90
7016;DHT22;3548;48.402;9.990;2023-11-19T12:55:53;14.00;99.90
7016;DHT22;3548;48.402;9.990;2023-11-19T12:58:31;13.90;99.90
7016;DHT22;3548;48.402;9.990;2023-11-19T13:01:03;13.80;99.90
7016;DHT22;3548;48.402;9.990;2023-11-19T13:03:31;13.70;99.90
7016;DHT22;3548;48.402;9.990;2023-11-19T13:06:10;13.70;99.90
7016;DHT22;3548;48.402;9.990;2023-11-19T13:08:44;13.70;99.90
7016;DHT22;3548;48.402;9.990;2023-11-19T13:11:11;13.70;99.90
7016;DHT22;3548;48.402;9.990;2023-11-19T13:16:22;13.70;99.90
7016;DHT22;3548;48.402;9.990;2023-11-19T13:18:48;13.70;99.90
7016;DHT22;3548;48.402;9.990;2023-11-19T13:21:14;13.70;99.90
7016;DHT22;3548;48.402;9.990;2023-11-19T13:23:40;13.70;99.90
7016;DHT22;3548;48.402;9.990;2023-11-19T13:26:05;13.60;99.90
7016;DHT22;3548;48.402;9.990;2023-11-19T13:28:31;13.50;99.90
7016;DHT22;3548;48.402;9.990;2023-11-19T13:30:56;13.50;99.90
7016;DHT22;3548;48.402;9.990;2023-11-19T13:33:23;13.60;99.90
7016;DHT22;3548;48.402;9.990;2023-11-19T13:35:48;13.60;99.90
7016;DHT22;3548;48.402;9.990;2023-11-19T13:38:14;13.70;99.90
7016;DHT22;3548;48.402;9.990;2023-11-19T13:40:40;13.80;99.90
7016;DHT22;3548;48.402;9.990;2023-11-19T13:43:05;13.80;99.90
7016;DHT22;3548;48.402;9.990;2023-11-19T13:45:31;13.90;99.90
7016;DHT22;3548;48.402;9.990;2023-11-19T13:47:56;14.00;99.90
7016;DHT22;3548;48.402;9.990;2023-11-19T13:50:22;14.00;99.90
7016;DHT22;3548;48.402;9.990;2023-11-19T13:52:48;14.10;99.90
7016;DHT22;3548;48.402;9.990;2023-11-19T13:55:14;14.20;99.90
7016;DHT22;3548;48.402;9.990;2023-11-19T13:57:41;14.20;99.90
7016;DHT22;3548;48.402;9.990;2023-11-19T14:00:09;14.20;99.90
7016;DHT22;3548;48.402;9.990;2023-11-19T14:02:49;14.30;99.90
7016;DHT22;3548;48.402;9.990;2023-11-19T14:05:15;14.20;99.90
7016;DHT22;3548;48.402;9.990;2023-11-19T14:07:43;14.30;99.90
7016;DHT22;3548;48.402;9.990;2023-11-19T14:10:09;14.30;99.90
7016;DHT22;3548;48.402;9.990;2023-11-19T14:12:36;14.30;99.90
7016;DHT22;3548;48.402;9.990;2023-11-19T14:15:04;14.30;99.90
7016;DHT22;3548;48.402;9.990;2023-11-19T14:17:32;14.20;99.90
7016;DHT22;3548;48.402;9.990;2023-11-19T14:19:58;14.20;99.90
7016;DHT22;3548;48.402;9.990;2023-11-19T14:22:23;14.20;99.90
7016;DHT22;3548;48.402;9.990;2023-11-19T14:24:50;14.10;99.90
7016;DHT22;3548;48.402;9.990;2023-11-19T14:27:15;14.10;99.90
7016;DHT22;3548;48.402;9.990;2023-11-19T14:29:43;14.10;99.90
7016;DHT22;3548;48.402;9.990;2023-11-19T14:32:10;14.00;99.90
7016;DHT22;3548;48.402;9.990;2023-11-19T14:34:35;13.80;99.90
7016;DHT22;3548;48.402;9.990;2023-11-19T14:37:01;13.70;99.90
7016;DHT22;3548;48.402;9.990;2023-11-19T14:39:26;13.60;99.90
7016;DHT22;3548;48.402;9.990;2023-11-19T14:41:52;13.50;99.90
7016;DHT22;3548;48.402;9.990;2023-11-19T14:44:19;13.50;99.90
7016;DHT22;3548;48.402;9.990;2023-11-19T14:46:46;13.50;99.90
7016;DHT22;3548;48.402;9.990;2023-11-19T14:49:11;13.40;99.90
7016;DHT22;3548;48.402;9.990;2023-11-19T14:51:37;13.30;99.90
7016;DHT22;3548;48.402;9.990;2023-11-19T14:54:06;13.30;99.90
7016;DHT22;3548;48.402;9.990;2023-11-19T14:56:32;13.20;99.90
7016;DHT22;3548;48.402;9.990;2023-11-19T14:58:57;13.20;99.90
7016;DHT22;3548;48.402;9.990;2023-11-19T15:01:24;13.20;99.90
7016;DHT22;3548;48.402;9.990;2023-11-19T15:03:51;13.10;99.90
7016;DHT22;3548;48.402;9.990;2023-11-19T15:06:16;13.10;99.90
7016;DHT22;3548;48.402;9.990;2023-11-19T15:08:42;13.00;99.90
7016;DHT22;3548;48.402;9.990;2023-11-19T15:11:10;13.00;99.90
7016;DHT22;3548;48.402;9.990;2023-11-19T15:13:37;12.90;99.90
7016;DHT22;3548;48.402;9.990;2023-11-19T15:16:03;13.00;99.90
7016;DHT22;3548;48.402;9.990;2023-11-19T15:18:31;13.00;99.90
7016;DHT22;3548;48.402;9.990;2023-11-19T15:20:57;12.90;99.90
7016;DHT22;3548;48.402;9.990;2023-11-19T15:23:22;12.80;99.90
7016;DHT22;3548;48.402;9.990;2023-11-19T15:25:48;12.80;99.90
7016;DHT22;3548;48.402;9.990;2023-11-19T15:28:14;12.80;99.90
7016;DHT22;3548;48.402;9.990;2023-11-19T15:30:40;12.70;99.90
7016;DHT22;3548;48.402;9.990;2023-11-19T15:33:06;12.70;99.90
7016;DHT22;3548;48.402;9.990;2023-11-19T15:35:31;12.70;99.90
7016;DHT22;3548;48.402;9.990;2023-11-19T15:37:57;12.60;99.90
7016;DHT22;3548;48.402;9.990;2023-11-19T15:40:22;12.60;99.90
7016;DHT22;3548;48.402;9.990;2023-11-19T15:42:48;12.60;99.90
7016;DHT22;3548;48.402;9.990;2023-11-19T15:45:14;12.50;99.90
7016;DHT22;3548;48.402;9.990;2023-11-19T15:47:41;12.50;99.90
7016;DHT22;3548;48.402;9.990;2023-11-19T15:50:07;12.50;99.90
7016;DHT22;3548;48.402;9.990;2023-11-19T15:52:35;12.40;99.90
7016;DHT22;3548;48.402;9.990;2023-11-19T15:55:00;12.40;99.90
7016;DHT22;3548;48.402;9.990;2023-11-19T15:57:26;12.30;99.90
7016;DHT22;3548;48.402;9.990;2023-11-19T15:59:52;12.30;99.90
7016;DHT22;3548;48.402;9.990;2023-11-19T16:02:17;12.30;99.90
7016;DHT22;3548;48.402;9.990;2023-11-19T16:04:43;12.20;99.90
7016;DHT22;3548;48.402;9.990;2023-11-19T16:07:16;12.20;99.90
7016;DHT22;3548;48.402;9.990;2023-11-19T16:09:43;12.20;99.90
7016;DHT22;3548;48.402;9.990;2023-11-19T16:12:09;12.20;99.90
7016;DHT22;3548;48.402;9.990;2023-11-19T16:14:35;12.10;99.90
7016;DHT22;3548;48.402;9.990;2023-11-19T16:17:00;12.10;99.90
7016;DHT22;3548;48.402;9.990;2023-11-19T16:19:26;12.10;99.90
7016;DHT22;3548;48.402;9.990;2023-11-19T16:21:52;12.10;99.90
7016;DHT22;3548;48.402;9.990;2023-11-19T16:24:18;12.10;99.90
7016;DHT22;3548;48.402;9.990;2023-11-19T16:26:43;12.00;99.90
7016;DHT22;3548;48.402;9.990;2023-11-19T16:29:09;12.00;99.90